Time;durP1;ratioP1;P1;durP2;ratioP2;P2;SDS_P1;SDS_P2;PMS_P1;PMS_P2;Temp;Humidity;BMP_temperature;BMP_pressure;BME280_temperature;BME280_humidity;BME280_pressure;Samples;Min_cycle;Max_cycle;Signal;HPM_P1;HPM_P2
2022/05/13 00:01:09;;;;;;;12.32;7.10;;;28.30;93.90;;;;;;5103121;28;20040;-51
2022/05/13 00:03:37;;;;;;;11.02;7.55;;;28.30;93.70;;;;;;5103282;28;20016;-58
2022/05/13 00:06:04;;;;;;;8.80;5.85;;;28.30;93.70;;;;;;5103489;28;20065;-54
2022/05/13 00:08:31;;;;;;;7.53;5.30;;;28.30;93.50;;;;;;5103896;28;20035;-54
2022/05/13 00:10:58;;;;;;;5.97;4.25;;;28.30;93.50;;;;;;5107085;28;20024;-54
2022/05/13 00:13:25;;;;;;;7.78;4.70;;;28.20;93.50;;;;;;5107136;28;20020;-50
2022/05/13 00:15:52;;;;;;;5.80;3.65;;;28.20;93.60;;;;;;5106899;28;20020;-47
2022/05/13 00:18:19;;;;;;;9.95;3.55;;;28.20;93.60;;;;;;5106802;28;20100;-54
2022/05/13 00:20:46;;;;;;;8.70;3.30;;;28.20;93.50;;;;;;5106898;28;20024;-51
2022/05/13 00:23:13;;;;;;;7.32;3.42;;;28.20;93.50;;;;;;5106739;28;20019;-50
2022/05/13 00:25:39;;;;;;;6.28;3.67;;;28.20;93.50;;;;;;5106837;28;20020;-56
2022/05/13 00:28:08;;;;;;;9.15;4.85;;;28.20;93.60;;;;;;5106766;28;20083;-52
2022/05/13 00:30:40;;;;;;;7.50;3.80;;;28.20;93.70;;;;;;5106773;28;20024;-55
2022/05/13 00:33:09;;;;;;;4.80;2.95;;;28.20;93.50;;;;;;5106579;28;20016;-52
2022/05/13 00:35:37;;;;;;;5.53;2.80;;;28.20;93.40;;;;;;5106848;28;20230;-54
2022/05/13 00:38:05;;;;;;;9.38;4.20;;;28.20;93.40;;;;;;5106616;28;20023;-51
2022/05/13 00:40:32;;;;;;;6.80;3.55;;;28.20;93.30;;;;;;5106304;28;20027;-48
2022/05/13 00:43:03;;;;;;;4.93;3.10;;;28.20;93.30;;;;;;5106426;28;20020;-53
2022/05/13 00:45:31;;;;;;;6.45;2.90;;;28.10;93.20;;;;;;5106463;28;20016;-53
2022/05/13 00:47:58;;;;;;;6.35;2.47;;;28.10;93.20;;;;;;5106293;28;20110;-50
2022/05/13 00:50:30;;;;;;;7.30;2.35;;;28.10;93.20;;;;;;5106266;28;20024;-54
2022/05/13 00:52:57;;;;;;;7.93;2.40;;;28.10;93.10;;;;;;5106347;28;20083;-52
2022/05/13 00:55:37;;;;;;;3.95;1.85;;;28.10;93.10;;;;;;5106117;28;20042;-53
2022/05/13 00:58:08;;;;;;;4.65;1.80;;;28.10;93.10;;;;;;5106138;28;20031;-48
2022/05/13 01:00:35;;;;;;;6.13;1.80;;;28.10;93.10;;;;;;5105891;28;20036;-51
2022/05/13 01:03:03;;;;;;;4.60;2.65;;;28.10;93.10;;;;;;5106054;28;20023;-50
2022/05/13 01:05:30;;;;;;;9.30;4.05;;;28.00;93.10;;;;;;5106082;28;20016;-50
2022/05/13 01:08:00;;;;;;;10.50;3.80;;;28.00;93.00;;;;;;5105946;28;20020;-55
2022/05/13 01:10:27;;;;;;;5.28;3.63;;;28.00;93.00;;;;;;5105971;28;20024;-51
2022/05/13 01:12:59;;;;;;;7.82;3.20;;;28.00;93.00;;;;;;5105902;28;20050;-52
2022/05/13 01:15:36;;;;;;;10.77;2.80;;;28.00;93.10;;;;;;5105665;28;20083;-50
2022/05/13 01:18:07;;;;;;;9.23;2.20;;;28.00;93.00;;;;;;5105749;28;20312;-51
2022/05/13 01:20:36;;;;;;;4.80;1.80;;;28.00;93.10;;;;;;5105571;28;20166;-48
2022/05/13 01:23:12;;;;;;;6.63;1.80;;;28.00;93.10;;;;;;5105413;28;20024;-50
2022/05/13 01:25:43;;;;;;;4.13;1.65;;;28.00;93.10;;;;;;5105709;28;20048;-49
2022/05/13 01:28:16;;;;;;;6.82;1.92;;;28.00;93.20;;;;;;5105591;28;20104;-50
2022/05/13 01:30:46;;;;;;;5.38;1.80;;;27.90;93.20;;;;;;5105756;28;20020;-55
2022/05/13 01:33:13;;;;;;;4.53;1.50;;;27.90;93.20;;;;;;5105380;28;20020;-51
2022/05/13 01:35:43;;;;;;;2.30;1.50;;;27.90;93.20;;;;;;5105530;28;20028;-52
2022/05/13 01:38:11;;;;;;;4.38;1.30;;;27.90;93.20;;;;;;5105386;28;20024;-48
2022/05/13 01:40:39;;;;;;;4.95;1.67;;;27.90;93.20;;;;;;5105153;28;20020;-53
2022/05/13 01:43:06;;;;;;;4.15;1.38;;;27.90;93.20;;;;;;5105168;28;20324;-50
2022/05/13 01:45:34;;;;;;;5.90;1.38;;;27.90;93.30;;;;;;5105327;28;20020;-48
2022/05/13 01:48:00;;;;;;;4.82;1.50;;;27.80;93.40;;;;;;5105055;28;20024;-50
2022/05/13 01:50:27;;;;;;;5.57;1.13;;;27.80;93.50;;;;;;5105172;28;20012;-49
2022/05/13 01:52:55;;;;;;;5.85;1.38;;;27.90;93.50;;;;;;5105117;28;20051;-52
2022/05/13 01:55:23;;;;;;;5.15;1.20;;;27.80;93.60;;;;;;5104856;28;20208;-52
2022/05/13 01:57:50;;;;;;;2.72;1.10;;;27.80;93.60;;;;;;5105118;28;20032;-49
2022/05/13 02:00:17;;;;;;;5.82;1.45;;;27.80;93.60;;;;;;5104838;28;20302;-48
2022/05/13 02:05:30;;;;;;;4.32;1.05;;;27.80;93.80;;;;;;5105015;28;20362;-51
2022/05/13 02:07:56;;;;;;;2.85;1.23;;;27.80;93.80;;;;;;5104728;28;20026;-58
2022/05/13 02:10:23;;;;;;;2.55;1.10;;;27.80;93.80;;;;;;5104757;28;20027;-49
2022/05/13 02:12:50;;;;;;;6.60;1.50;;;27.80;94.00;;;;;;5104723;28;20038;-50
2022/05/13 02:15:17;;;;;;;3.72;1.35;;;27.80;94.00;;;;;;5104527;28;20016;-50
2022/05/13 02:17:44;;;;;;;4.10;1.50;;;27.80;94.10;;;;;;5104768;28;20024;-52
2022/05/13 02:20:11;;;;;;;7.35;1.30;;;27.80;94.10;;;;;;5097249;28;20091;-47
2022/05/13 02:22:38;;;;;;;5.93;1.90;;;27.80;94.20;;;;;;5093539;28;20028;-51
2022/05/13 02:25:06;;;;;;;6.78;2.05;;;27.80;94.20;;;;;;5090633;28;20027;-49
2022/05/13 02:27:33;;;;;;;4.80;1.50;;;27.80;94.20;;;;;;5083152;28;20088;-50
2022/05/13 02:29:59;;;;;;;9.43;2.53;;;27.80;94.30;;;;;;5083970;28;20021;-53
2022/05/13 02:32:26;;;;;;;7.10;1.90;;;27.80;94.30;;;;;;5084193;28;20091;-49
2022/05/13 02:34:52;;;;;;;6.82;1.80;;;27.80;94.30;;;;;;5092272;28;20023;-55
2022/05/13 02:37:19;;;;;;;8.00;1.75;;;27.80;94.30;;;;;;5098194;28;20028;-48
2022/05/13 02:39:46;;;;;;;6.10;1.55;;;27.80;94.20;;;;;;5087343;28;20269;-47
2022/05/13 02:42:14;;;;;;;5.43;1.70;;;27.80;94.20;;;;;;5099839;28;20308;-51
2022/05/13 02:44:41;;;;;;;4.82;1.48;;;27.80;94.30;;;;;;5086655;28;20028;-47
2022/05/13 02:47:08;;;;;;;7.35;1.55;;;27.80;94.30;;;;;;5084302;28;20023;-50
2022/05/13 02:49:34;;;;;;;5.95;1.75;;;27.80;94.60;;;;;;5083989;28;20021;-50
2022/05/13 02:52:01;;;;;;;5.53;1.50;;;27.80;94.50;;;;;;5084178;28;20028;-46
2022/05/13 02:54:27;;;;;;;6.28;1.70;;;27.80;94.40;;;;;;5083931;28;20028;-48
2022/05/13 02:56:54;;;;;;;5.53;1.67;;;27.70;94.40;;;;;;5084213;28;20060;-49
2022/05/13 02:59:20;;;;;;;4.47;1.30;;;27.80;94.50;;;;;;5094052;28;20027;-53
2022/05/13 03:01:47;;;;;;;6.95;1.58;;;27.70;94.50;;;;;;5103774;28;20121;-54
2022/05/13 03:04:14;;;;;;;5.80;1.58;;;27.80;94.50;;;;;;5103997;28;20024;-50
2022/05/13 03:06:40;;;;;;;2.70;1.23;;;27.70;94.50;;;;;;5103944;28;20028;-46
2022/05/13 03:09:07;;;;;;;6.32;1.70;;;27.70;94.50;;;;;;5103883;28;20023;-54
2022/05/13 03:11:33;;;;;;;5.97;1.50;;;27.80;94.60;;;;;;5104303;28;20084;-49
2022/05/13 03:14:00;;;;;;;7.88;1.65;;;27.70;94.50;;;;;;5103842;28;20247;-50
2022/05/13 03:16:26;;;;;;;4.18;1.17;;;27.70;94.50;;;;;;5096730;28;20026;-49
2022/05/13 03:18:56;;;;;;;3.97;1.40;;;27.70;94.40;;;;;;5100262;28;20028;-50
2022/05/13 03:21:24;;;;;;;6.85;1.35;;;27.70;94.40;;;;;;5083746;28;20039;-46
2022/05/13 03:23:51;;;;;;;5.07;1.55;;;27.70;94.40;;;;;;5083550;28;20020;-55
2022/05/13 03:26:20;;;;;;;4.53;1.40;;;27.70;94.40;;;;;;5083933;28;20032;-50
2022/05/13 03:28:47;;;;;;;8.63;1.75;;;27.70;94.40;;;;;;5083584;28;20182;-50
2022/05/13 03:31:14;;;;;;;4.57;1.40;;;27.70;94.40;;;;;;5083690;28;20100;-57
2022/05/13 03:33:41;;;;;;;6.00;1.63;;;27.70;94.40;;;;;;5083599;28;20058;-48
2022/05/13 03:36:10;;;;;;;3.35;1.50;;;27.70;94.40;;;;;;5083697;28;20028;-47
2022/05/13 03:38:37;;;;;;;5.47;1.40;;;27.70;94.40;;;;;;5083706;28;20055;-50
2022/05/13 03:41:03;;;;;;;3.67;1.40;;;27.70;94.40;;;;;;5083497;28;20204;-55
2022/05/13 03:43:30;;;;;;;3.38;1.40;;;27.70;94.40;;;;;;5083893;28;20362;-50
2022/05/13 03:45:56;;;;;;;3.33;1.35;;;27.70;94.40;;;;;;5087340;28;20032;-56
2022/05/13 03:48:23;;;;;;;4.60;1.45;;;27.60;94.50;;;;;;5087467;28;20016;-49
2022/05/13 03:50:50;;;;;;;9.35;2.20;;;27.60;94.50;;;;;;5087161;28;20024;-53
2022/05/13 03:53:16;;;;;;;4.28;1.45;;;27.60;94.60;;;;;;5087091;28;20020;-49
2022/05/13 03:55:45;;;;;;;7.40;1.70;;;27.60;94.60;;;;;;5087274;28;20024;-47
2022/05/13 03:58:12;;;;;;;7.43;1.67;;;27.60;94.70;;;;;;5087058;28;20028;-51
2022/05/13 04:00:39;;;;;;;5.75;1.60;;;27.60;94.70;;;;;;5090527;28;20024;-53
2022/05/13 04:03:05;;;;;;;6.05;1.63;;;27.60;94.70;;;;;;5096351;28;20055;-50
2022/05/13 04:11:02;;;;;;;6.75;1.30;;;27.60;94.70;;;;;;5092709;28;20026;-47
2022/05/13 04:16:14;;;;;;;6.22;1.83;;;27.60;94.80;;;;;;5107207;28;20026;-49
2022/05/13 04:18:43;;;;;;;5.47;2.05;;;27.60;94.90;;;;;;5107076;28;20019;-47
2022/05/13 04:21:16;;;;;;;4.38;1.80;;;27.50;94.90;;;;;;5107098;28;20028;-47
2022/05/13 04:23:46;;;;;;;5.32;1.70;;;27.50;94.90;;;;;;5106698;28;20011;-46
2022/05/13 04:26:13;;;;;;;10.10;2.15;;;27.50;94.90;;;;;;5106963;28;20052;-51
2022/05/13 04:28:45;;;;;;;9.35;1.88;;;27.50;94.90;;;;;;5106908;28;20315;-52
2022/05/13 04:31:13;;;;;;;7.67;1.80;;;27.50;94.90;;;;;;5106910;28;20024;-49
2022/05/13 04:33:41;;;;;;;7.93;1.95;;;27.50;94.90;;;;;;5101596;28;20316;-47
2022/05/13 04:36:07;;;;;;;4.88;1.73;;;27.50;94.90;;;;;;5099965;28;20133;-46
2022/05/13 04:38:35;;;;;;;8.25;1.60;;;27.50;94.80;;;;;;5093772;28;20016;-49
2022/05/13 04:42:49;;;;;;;6.78;1.80;;;27.50;94.80;;;;;;5106568;28;20036;-47
2022/05/13 04:43:49;;;;;;;7.40;1.65;;;27.50;94.80;;;;;;5098763;28;20024;-49
2022/05/13 04:46:17;;;;;;;7.30;1.77;;;27.50;94.80;;;;;;5086407;28;20027;-50
2022/05/13 04:48:47;;;;;;;7.55;1.70;;;27.50;94.90;;;;;;5086167;28;20367;-51
2022/05/13 04:51:13;;;;;;;6.10;1.40;;;27.50;94.90;;;;;;5086168;28;20071;-47
2022/05/13 04:53:40;;;;;;;4.97;1.42;;;27.50;94.90;;;;;;5086371;28;20276;-50
2022/05/13 04:56:08;;;;;;;5.07;1.75;;;27.50;94.90;;;;;;5085869;28;20109;-50
2022/05/13 04:58:36;;;;;;;5.65;1.80;;;27.50;94.90;;;;;;5085877;28;20020;-47
2022/05/13 05:01:04;;;;;;;5.75;1.75;;;27.50;94.80;;;;;;5085597;28;20080;-50
2022/05/13 05:03:32;;;;;;;5.03;1.83;;;27.50;94.80;;;;;;5085921;28;20032;-51
2022/05/13 05:06:00;;;;;;;7.25;1.92;;;27.50;94.90;;;;;;5085944;28;20330;-47
2022/05/13 05:08:28;;;;;;;9.95;2.40;;;27.50;94.80;;;;;;5086122;28;20044;-47
2022/05/13 05:10:56;;;;;;;7.03;1.67;;;27.50;94.80;;;;;;5085859;28;20065;-50
2022/05/13 05:13:27;;;;;;;7.55;1.60;;;27.50;94.80;;;;;;5085838;28;20036;-51
2022/05/13 05:15:54;;;;;;;6.43;1.52;;;27.50;94.90;;;;;;5085727;28;20058;-45
2022/05/13 05:18:21;;;;;;;2.70;1.23;;;27.40;94.90;;;;;;5085476;28;20078;-52
2022/05/13 05:20:49;;;;;;;4.70;1.73;;;27.40;94.90;;;;;;5085686;28;20201;-46
2022/05/13 05:23:38;;;;;;;8.52;2.00;;;27.40;94.90;;;;;;5085538;28;20186;-50
2022/05/13 05:26:06;;;;;;;5.25;2.00;;;27.40;95.00;;;;;;5085594;28;20025;-48
2022/05/13 05:28:33;;;;;;;6.35;1.80;;;27.40;95.00;;;;;;5085331;28;20096;-47
2022/05/13 05:31:01;;;;;;;7.00;1.60;;;27.40;94.90;;;;;;5085381;28;20023;-49
2022/05/13 05:33:29;;;;;;;5.90;1.70;;;27.40;95.00;;;;;;5085441;28;20028;-49
2022/05/13 05:35:56;;;;;;;6.78;1.45;;;27.40;95.00;;;;;;5085251;28;20083;-49
2022/05/13 05:38:23;;;;;;;8.13;1.70;;;27.40;95.00;;;;;;5084942;28;20309;-46
2022/05/13 05:40:50;;;;;;;7.85;1.73;;;27.40;94.90;;;;;;5085111;28;20092;-49
2022/05/13 05:43:19;;;;;;;9.95;3.70;;;27.40;94.90;;;;;;5085073;28;20412;-48
2022/05/13 05:45:45;;;;;;;12.15;4.15;;;27.40;95.10;;;;;;5085305;28;20087;-56
2022/05/13 05:48:14;;;;;;;7.43;2.35;;;27.40;95.10;;;;;;5085063;28;20028;-48
2022/05/13 05:50:41;;;;;;;7.38;2.25;;;27.30;95.00;;;;;;5085012;28;20020;-53
2022/05/13 05:53:08;;;;;;;6.00;2.00;;;27.30;95.00;;;;;;5084766;28;20243;-55
2022/05/13 05:58:20;;;;;;;13.30;1.70;;;27.30;94.90;;;;;;5084664;28;20066;-50
2022/05/13 06:00:51;;;;;;;5.40;1.70;;;27.30;94.90;;;;;;5084664;28;20021;-56
2022/05/13 06:03:18;;;;;;;5.22;1.42;;;27.30;94.90;;;;;;5084704;28;20024;-50
2022/05/13 06:06:00;;;;;;;8.23;1.85;;;27.30;94.90;;;;;;5084424;28;20235;-52
2022/05/13 06:08:27;;;;;;;8.70;1.45;;;27.30;94.90;;;;;;5084442;28;20032;-52
2022/05/13 06:10:53;;;;;;;6.63;1.65;;;27.30;94.90;;;;;;5084595;28;20029;-55
2022/05/13 06:13:20;;;;;;;6.72;1.50;;;27.30;94.90;;;;;;5084791;28;20081;-51
2022/05/13 06:15:46;;;;;;;9.02;1.45;;;27.30;94.80;;;;;;5084898;28;20047;-52
2022/05/13 06:18:13;;;;;;;4.65;1.20;;;27.30;94.80;;;;;;5084516;28;20388;-51
2022/05/13 06:20:41;;;;;;;8.63;1.63;;;27.30;94.80;;;;;;5084197;28;20032;-54
2022/05/13 06:23:08;;;;;;;8.75;1.77;;;27.30;94.80;;;;;;5084145;28;20039;-48
2022/05/13 06:25:36;;;;;;;9.07;1.33;;;27.20;94.80;;;;;;5084391;28;20028;-50
2022/05/13 06:28:02;;;;;;;8.60;1.35;;;27.30;94.90;;;;;;5084202;28;20021;-53
2022/05/13 06:30:33;;;;;;;8.05;1.88;;;27.20;94.80;;;;;;5084343;28;20016;-51
2022/05/13 06:32:59;;;;;;;8.90;1.70;;;27.20;94.90;;;;;;5084151;28;20292;-54
2022/05/13 06:35:28;;;;;;;12.30;2.33;;;27.20;94.90;;;;;;5084467;28;20033;-48
2022/05/13 06:37:54;;;;;;;10.85;2.70;;;27.20;94.90;;;;;;5084200;28;20020;-50
2022/05/13 06:40:25;;;;;;;10.63;2.55;;;27.20;95.00;;;;;;5084049;28;20028;-51
2022/05/13 06:42:53;;;;;;;8.95;2.42;;;27.20;94.90;;;;;;5083972;28;20024;-52
2022/05/13 06:45:20;;;;;;;14.82;2.88;;;27.20;94.90;;;;;;5084027;28;20079;-48
2022/05/13 06:47:47;;;;;;;14.02;3.13;;;27.10;94.90;;;;;;5083966;28;20308;-50
2022/05/13 06:50:18;;;;;;;8.48;2.38;;;27.10;94.90;;;;;;5083897;28;20020;-47
2022/05/13 06:52:46;;;;;;;12.77;2.33;;;27.10;94.90;;;;;;5084016;28;20016;-51
2022/05/13 06:55:15;;;;;;;9.20;1.75;;;27.10;94.80;;;;;;5083799;28;20019;-51
2022/05/13 06:57:41;;;;;;;7.35;1.67;;;27.10;94.80;;;;;;5083931;28;20047;-49
2022/05/13 07:00:10;;;;;;;8.23;1.58;;;27.10;94.80;;;;;;5083911;28;20029;-55
2022/05/13 07:02:36;;;;;;;6.25;1.77;;;27.10;94.80;;;;;;5083621;28;20044;-52
2022/05/13 07:05:03;;;;;;;8.20;1.58;;;27.10;94.80;;;;;;5083808;28;20020;-50
2022/05/13 07:07:29;;;;;;;7.93;1.63;;;27.00;94.80;;;;;;5083729;28;20050;-51
2022/05/13 07:09:56;;;;;;;12.52;1.42;;;27.10;94.80;;;;;;5083604;28;20186;-53
2022/05/13 07:12:23;;;;;;;7.03;1.40;;;27.10;94.80;;;;;;5084271;28;20066;-51
2022/05/13 07:14:49;;;;;;;6.18;1.70;;;27.00;94.90;;;;;;5083897;28;20079;-47
2022/05/13 07:17:16;;;;;;;6.10;1.70;;;27.00;94.80;;;;;;5084173;28;20032;-48
2022/05/13 07:19:42;;;;;;;7.80;1.42;;;27.00;94.80;;;;;;5087965;28;20083;-51
2022/05/13 07:22:09;;;;;;;6.57;1.23;;;27.00;94.80;;;;;;5088125;28;20032;-48
2022/05/13 07:24:35;;;;;;;7.18;1.50;;;27.00;94.90;;;;;;5087793;28;20065;-50
2022/05/13 07:27:03;;;;;;;4.95;1.40;;;27.00;95.00;;;;;;5088100;28;20047;-47
2022/05/13 07:29:30;;;;;;;5.53;1.45;;;27.00;94.90;;;;;;5087722;28;20043;-47
2022/05/13 07:31:57;;;;;;;5.53;1.65;;;27.00;95.00;;;;;;5087944;28;20197;-51
2022/05/13 07:34:23;;;;;;;8.40;1.58;;;27.00;95.00;;;;;;5087578;28;20031;-50
2022/05/13 07:36:53;;;;;;;8.68;1.30;;;27.00;95.00;;;;;;5087884;28;20039;-52
2022/05/13 07:42:08;;;;;;;4.53;1.27;;;27.00;95.00;;;;;;5087832;28;20035;-52
2022/05/13 07:44:36;;;;;;;8.98;1.38;;;27.00;94.90;;;;;;5087399;28;20075;-50
2022/05/13 07:47:05;;;;;;;8.02;1.73;;;27.00;94.90;;;;;;5087794;28;20063;-54
2022/05/13 07:49:32;;;;;;;7.82;1.40;;;27.00;94.90;;;;;;5087324;28;20017;-51
2022/05/13 07:51:58;;;;;;;7.90;1.40;;;26.90;94.90;;;;;;5087469;28;20085;-49
2022/05/13 07:54:25;;;;;;;5.97;1.27;;;26.90;94.90;;;;;;5087455;28;20029;-54
2022/05/13 07:56:52;;;;;;;7.38;1.40;;;26.90;94.90;;;;;;5087536;28;20028;-48
2022/05/13 07:59:20;;;;;;;3.63;1.27;;;26.90;94.90;;;;;;5087058;28;20023;-49
2022/05/13 08:01:47;;;;;;;6.60;1.20;;;26.90;94.90;;;;;;5086844;28;20304;-52
2022/05/13 08:04:14;;;;;;;6.03;1.52;;;26.90;94.80;;;;;;5087033;28;20269;-51
2022/05/13 08:06:42;;;;;;;8.82;1.70;;;26.90;94.90;;;;;;5087154;28;20092;-52
2022/05/13 08:09:08;;;;;;;5.07;1.20;;;26.90;94.90;;;;;;5086861;28;20093;-49
2022/05/13 08:11:35;;;;;;;4.75;1.27;;;26.90;94.90;;;;;;5087144;28;20028;-49
2022/05/13 08:14:02;;;;;;;8.57;1.50;;;26.90;95.10;;;;;;5087071;28;20248;-48
2022/05/13 08:16:29;;;;;;;6.88;1.40;;;26.90;94.90;;;;;;5087077;28;20039;-53
2022/05/13 08:18:58;;;;;;;4.85;0.98;;;26.90;94.90;;;;;;5086706;28;20065;-51
2022/05/13 08:21:25;;;;;;;8.13;1.60;;;26.90;94.90;;;;;;5086772;28;20035;-49
2022/05/13 08:23:52;;;;;;;4.55;1.25;;;26.90;94.90;;;;;;5086601;28;20055;-55
2022/05/13 08:26:19;;;;;;;5.05;1.40;;;26.80;94.90;;;;;;5086832;28;20028;-50
2022/05/13 08:28:46;;;;;;;6.82;1.23;;;26.80;94.90;;;;;;5086567;28;20017;-52
2022/05/13 08:31:16;;;;;;;6.95;1.33;;;26.80;95.00;;;;;;5086164;28;20028;-46
2022/05/13 08:33:42;;;;;;;4.55;1.30;;;26.80;95.00;;;;;;5086523;28;20017;-49
2022/05/13 08:36:09;;;;;;;9.45;1.80;;;26.80;95.10;;;;;;5086617;28;20200;-50
2022/05/13 08:38:40;;;;;;;5.13;1.40;;;26.80;95.10;;;;;;5086426;28;20024;-63
2022/05/13 08:41:10;;;;;;;5.83;1.57;;;26.80;95.10;;;;;;5086429;28;20028;-56
2022/05/13 08:44:11;;;;;;;4.65;1.20;;;26.80;95.10;;;;;;5086279;28;20013;-51
2022/05/13 08:46:55;;;;;;;5.55;1.33;;;26.80;95.10;;;;;;5054122;28;20095;-51
2022/05/13 08:49:36;;;;;;;7.00;1.60;;;26.80;95.10;;;;;;5086326;28;20021;-46
2022/05/13 08:55:07;;;;;;;3.58;1.25;;;26.70;95.00;;;;;;5086135;28;20055;-48
2022/05/13 08:57:41;;;;;;;4.30;1.20;;;26.80;95.00;;;;;;5086598;28;20100;-55
2022/05/13 09:00:22;;;;;;;4.65;1.30;;;26.70;95.00;;;;;;5086045;28;20020;-53
2022/05/13 09:02:58;;;;;;;5.03;1.20;;;26.80;95.10;;;;;;5085825;28;20048;-52
2022/05/13 09:05:32;;;;;;;5.20;1.25;;;26.80;95.00;;;;;;5085897;28;20029;-53
2022/05/13 09:08:00;;;;;;;3.30;1.23;;;26.70;95.00;;;;;;5085721;28;20008;-52
2022/05/13 09:10:28;;;;;;;4.90;1.17;;;26.70;95.00;;;;;;5085777;28;20020;-54
2022/05/13 09:13:07;;;;;;;4.20;1.48;;;26.70;95.00;;;;;;5085758;28;20043;-44
2022/05/13 09:15:38;;;;;;;4.10;1.65;;;26.70;95.00;;;;;;5086160;28;20066;-46
2022/05/13 09:18:21;;;;;;;6.17;1.47;;;26.70;95.00;;;;;;5085684;28;20020;-47
2022/05/13 09:20:50;;;;;;;5.95;1.30;;;26.70;95.00;;;;;;5085642;28;20021;-51
2022/05/13 09:23:18;;;;;;;3.42;1.25;;;26.70;95.00;;;;;;5085322;28;20366;-56
2022/05/13 09:25:47;;;;;;;4.07;1.23;;;26.70;95.00;;;;;;5085394;28;20035;-50
2022/05/13 09:28:15;;;;;;;3.95;1.27;;;26.70;95.00;;;;;;5085510;28;20017;-47
2022/05/13 09:30:45;;;;;;;4.38;1.25;;;26.70;95.10;;;;;;5085679;28;20025;-53
2022/05/13 09:33:30;;;;;;;3.25;1.08;;;26.70;95.10;;;;;;5085221;28;20087;-47
2022/05/13 09:36:06;;;;;;;2.28;1.00;;;26.70;95.10;;;;;;5085588;28;20387;-50
2022/05/13 09:38:42;;;;;;;2.28;0.95;;;26.60;95.30;;;;;;5085136;28;20029;-50
2022/05/13 09:41:11;;;;;;;2.97;1.30;;;26.70;95.10;;;;;;5084178;28;20250;-51
2022/05/13 09:43:43;;;;;;;5.40;1.48;;;26.70;95.10;;;;;;5084904;28;20017;-58
2022/05/13 09:46:20;;;;;;;2.95;1.13;;;26.70;95.00;;;;;;5085228;28;20036;-57
2022/05/13 09:49:00;;;;;;;5.28;1.38;;;26.60;95.00;;;;;;5085017;28;20075;-50
2022/05/13 09:51:36;;;;;;;5.00;1.35;;;26.60;95.00;;;;;;5085203;28;20021;-49
2022/05/13 09:54:16;;;;;;;4.10;0.88;;;26.60;95.00;;;;;;5084650;28;20070;-52
2022/05/13 09:56:48;;;;;;;3.05;0.95;;;26.60;95.00;;;;;;5085091;28;20032;-45
2022/05/13 09:59:25;;;;;;;3.30;0.90;;;26.60;95.00;;;;;;5084817;28;20043;-49
2022/05/13 10:01:52;;;;;;;3.50;0.95;;;26.60;94.90;;;;;;5084496;28;20048;-50
2022/05/13 10:04:25;;;;;;;7.78;1.25;;;26.60;94.90;;;;;;5084700;28;20032;-51
2022/05/13 10:07:14;;;;;;;5.25;1.17;;;26.60;94.90;;;;;;5084828;28;20036;-46
2022/05/13 10:15:36;;;;;;;5.22;1.10;;;26.60;94.80;;;;;;5100136;28;20073;-49
2022/05/13 10:18:15;;;;;;;5.57;1.05;;;26.60;94.80;;;;;;5104743;28;20035;-53
2022/05/13 10:20:44;;;;;;;2.05;0.90;;;26.60;94.80;;;;;;5104563;28;20064;-50
2022/05/13 10:23:36;;;;;;;3.47;0.95;;;26.60;94.80;;;;;;5104540;28;20057;-49
2022/05/13 10:26:25;;;;;;;4.43;1.20;;;26.60;94.70;;;;;;5104995;28;20021;-53
2022/05/13 10:29:30;;;;;;;3.38;1.25;;;26.60;94.90;;;;;;5104751;28;20059;-48
2022/05/13 10:31:57;;;;;;;6.00;1.20;;;26.60;94.80;;;;;;5101077;28;20331;-48
2022/05/13 10:34:38;;;;;;;5.38;1.50;;;26.60;94.80;;;;;;5104441;28;20343;-48
2022/05/13 10:37:13;;;;;;;5.53;1.63;;;26.60;94.70;;;;;;5104836;28;20070;-50
2022/05/13 10:39:45;;;;;;;7.13;1.83;;;26.60;94.70;;;;;;5104399;28;20039;-56
2022/05/13 10:42:34;;;;;;;5.78;1.73;;;26.60;94.70;;;;;;5104674;28;20087;-46
2022/05/13 10:45:25;;;;;;;8.90;2.13;;;26.50;94.70;;;;;;5104390;28;20016;-50
2022/05/13 10:48:01;;;;;;;5.43;1.50;;;26.50;94.60;;;;;;5104139;28;20313;-49
2022/05/13 10:50:43;;;;;;;4.82;1.75;;;26.50;94.60;;;;;;5104526;28;20020;-54
2022/05/13 10:53:16;;;;;;;8.35;2.03;;;26.50;94.50;;;;;;5102736;28;20020;-50
2022/05/13 10:55:59;;;;;;;7.28;2.20;;;26.50;94.50;;;;;;5104246;28;20090;-46
2022/05/13 10:58:36;;;;;;;5.97;1.90;;;26.50;94.50;;;;;;5104105;28;20016;-51
2022/05/13 11:01:21;;;;;;;5.38;1.92;;;26.50;94.50;;;;;;5104084;28;20047;-51
2022/05/13 11:04:39;;;;;;;4.28;1.80;;;26.50;94.50;;;;;;5104340;28;20059;-51
2022/05/13 11:07:24;;;;;;;4.88;1.90;;;26.50;94.50;;;;;;5069478;28;20027;-51
2022/05/13 11:10:17;;;;;;;5.35;1.77;;;26.50;94.60;;;;;;5104007;28;20188;-48
2022/05/13 11:12:57;;;;;;;13.30;2.78;;;26.50;94.60;;;;;;5103934;28;20032;-50
2022/05/13 11:15:29;;;;;;;6.38;2.38;;;26.50;94.80;;;;;;5103923;28;20281;-50
2022/05/13 11:18:08;;;;;;;7.55;2.15;;;26.50;94.80;;;;;;5103951;28;20044;-50
2022/05/13 11:20:45;;;;;;;8.30;2.50;;;26.50;94.70;;;;;;5103767;28;20027;-50
2022/05/13 11:23:30;;;;;;;6.70;2.13;;;26.50;94.80;;;;;;5102308;28;20025;-52
2022/05/13 11:26:12;;;;;;;7.90;2.53;;;26.50;94.80;;;;;;5102227;28;20342;-49
2022/05/13 11:28:53;;;;;;;7.53;2.45;;;26.50;94.80;;;;;;5102181;28;20022;-48
2022/05/13 11:31:41;;;;;;;5.78;2.30;;;26.50;94.80;;;;;;5102311;28;20061;-55
2022/05/13 11:34:49;;;;;;;6.45;2.53;;;26.50;94.90;;;;;;5101917;28;20031;-49
2022/05/13 11:37:17;;;;;;;26.02;3.17;;;26.50;94.80;;;;;;5102847;28;20028;-50
2022/05/13 11:40:15;;;;;;;14.02;3.13;;;26.50;94.80;;;;;;5103988;28;20046;-56
2022/05/13 11:45:53;;;;;;;22.70;3.17;;;26.50;94.60;;;;;;5083958;28;20031;-53
2022/05/13 11:48:23;;;;;;;17.67;2.65;;;26.50;94.50;;;;;;5083245;28;20095;-52
2022/05/13 11:50:50;;;;;;;12.82;2.50;;;26.50;94.50;;;;;;5083218;28;20022;-52
2022/05/13 11:53:49;;;;;;;9.65;2.13;;;26.50;94.40;;;;;;5083133;28;20020;-53
2022/05/13 11:56:31;;;;;;;15.30;2.45;;;26.50;94.50;;;;;;5083305;28;20043;-53
2022/05/13 11:59:11;;;;;;;10.93;2.20;;;26.50;94.50;;;;;;5083300;28;20021;-50
2022/05/13 12:01:46;;;;;;;9.45;1.90;;;26.50;94.50;;;;;;5083126;28;20055;-50
2022/05/13 12:04:13;;;;;;;8.77;2.10;;;26.50;94.50;;;;;;5083307;28;20033;-57
2022/05/13 12:07:18;;;;;;;6.88;1.40;;;26.50;94.40;;;;;;5087153;28;20012;-50
2022/05/13 12:09:49;;;;;;;5.47;1.67;;;26.50;94.50;;;;;;5087631;28;20020;-49
2022/05/13 12:12:35;;;;;;;6.88;1.92;;;26.50;94.60;;;;;;5087618;28;20327;-48
2022/05/13 12:15:25;;;;;;;7.45;1.77;;;26.50;94.60;;;;;;5087157;28;20099;-51
2022/05/13 12:18:21;;;;;;;7.03;1.65;;;26.50;94.60;;;;;;5086977;28;20050;-49
2022/05/13 12:21:14;;;;;;;6.32;1.90;;;26.50;94.60;;;;;;5085429;28;20039;-53
2022/05/13 12:23:50;;;;;;;8.68;2.05;;;26.50;94.60;;;;;;5058042;28;20350;-49
2022/05/13 12:26:44;;;;;;;10.50;1.83;;;26.50;94.60;;;;;;5086641;28;20032;-55
2022/05/13 12:29:56;;;;;;;9.38;2.00;;;26.60;94.60;;;;;;5086886;28;20029;-50
2022/05/13 12:32:34;;;;;;;6.10;1.60;;;26.50;94.60;;;;;;5087000;28;20024;-51
2022/05/13 12:37:46;;;;;;;7.78;1.60;;;26.60;94.50;;;;;;5086523;28;20023;-47
2022/05/13 12:40:35;;;;;;;5.38;1.70;;;26.60;94.60;;;;;;5086341;28;20013;-50
2022/05/13 12:43:19;;;;;;;3.60;1.55;;;26.60;94.50;;;;;;5086094;28;20039;-50
2022/05/13 12:46:08;;;;;;;7.00;1.52;;;26.60;94.50;;;;;;5086287;28;20079;-49
2022/05/13 12:48:34;;;;;;;3.55;1.48;;;26.60;94.40;;;;;;5086396;28;20084;-54
2022/05/13 12:51:19;;;;;;;4.35;1.52;;;26.60;94.40;;;;;;5086253;28;20066;-47
2022/05/13 12:53:51;;;;;;;4.00;1.60;;;26.60;94.40;;;;;;5086190;28;20043;-51
2022/05/13 12:56:29;;;;;;;5.00;1.90;;;26.60;94.50;;;;;;5086146;28;20013;-52
2022/05/13 12:59:12;;;;;;;4.25;1.77;;;26.60;94.50;;;;;;5086033;28;20021;-48
2022/05/13 13:01:45;;;;;;;5.25;2.28;;;26.70;94.50;;;;;;5085682;28;20100;-50
2022/05/13 13:04:15;;;;;;;9.98;2.40;;;26.70;94.50;;;;;;5092096;28;20065;-48
2022/05/13 13:06:47;;;;;;;5.00;1.83;;;26.60;94.60;;;;;;5095498;28;20020;-49
2022/05/13 13:09:29;;;;;;;4.75;2.10;;;26.70;94.70;;;;;;5085866;28;20020;-54
2022/05/13 13:12:06;;;;;;;8.27;2.63;;;26.70;94.70;;;;;;5086083;28;20088;-56
2022/05/13 13:14:47;;;;;;;8.98;2.65;;;26.70;94.70;;;;;;5085708;28;20032;-53
2022/05/13 13:17:49;;;;;;;8.27;2.30;;;26.70;94.70;;;;;;5085715;28;20245;-52
2022/05/13 13:20:18;;;;;;;11.75;2.78;;;26.70;94.80;;;;;;5066238;28;20093;-57
2022/05/13 13:23:16;;;;;;;11.68;2.88;;;26.80;94.90;;;;;;5085466;28;20036;-52
2022/05/13 13:25:45;;;;;;;6.15;2.10;;;26.80;94.90;;;;;;5073286;28;20216;-54
2022/05/13 13:28:20;;;;;;;8.20;2.40;;;26.80;94.90;;;;;;5085419;28;20027;-53
2022/05/13 13:30:56;;;;;;;10.88;2.63;;;26.80;94.90;;;;;;5085565;28;20034;-54
2022/05/13 13:33:26;;;;;;;4.88;2.45;;;26.80;95.00;;;;;;5085648;28;20362;-51
2022/05/13 13:35:54;;;;;;;5.97;1.88;;;26.80;95.00;;;;;;5085490;28;20043;-48
2022/05/13 13:38:21;;;;;;;7.82;2.13;;;26.80;95.00;;;;;;5085104;28;20028;-49
2022/05/13 13:40:51;;;;;;;5.75;1.80;;;26.80;95.00;;;;;;5085365;28;20020;-50